createdAt,value
2018-09-05T00:01:24.389Z,71.60
2018-09-05T00:03:57.803Z,71.50
2018-09-05T00:06:31.286Z,71.60
2018-09-05T00:09:07.064Z,72.20
2018-09-05T00:11:40.533Z,71.90
2018-09-05T00:14:14.064Z,72.20
2018-09-05T00:16:47.467Z,71.90
2018-09-05T00:19:20.868Z,71.80
2018-09-05T00:21:54.290Z,72.70
2018-09-05T00:24:27.703Z,73.10
2018-09-05T00:27:01.151Z,72.50
2018-09-05T00:29:34.683Z,72.30
2018-09-05T00:32:08.156Z,71.90
2018-09-05T00:34:41.611Z,72.00
2018-09-05T00:37:15.064Z,72.00
2018-09-05T00:39:48.494Z,72.30
2018-09-05T00:42:21.938Z,72.30
2018-09-05T00:44:55.338Z,72.50
2018-09-05T00:47:28.771Z,72.80
2018-09-05T00:50:02.197Z,73.40
2018-09-05T00:52:35.634Z,72.90
2018-09-05T00:55:10.152Z,73.40
2018-09-05T00:57:44.759Z,72.80
2018-09-05T01:00:18.183Z,72.90
2018-09-05T01:02:51.574Z,72.70
2018-09-05T01:05:24.962Z,73.00
2018-09-05T01:07:58.434Z,72.60
2018-09-05T01:10:31.833Z,73.20
2018-09-05T01:13:05.248Z,73.70
2018-09-05T01:15:39.859Z,74.80
2018-09-05T01:18:13.254Z,74.80
2018-09-05T01:20:46.738Z,75.20
2018-09-05T01:23:20.138Z,75.10
2018-09-05T01:25:53.531Z,74.40
2018-09-05T01:28:26.930Z,74.50
2018-09-05T01:31:00.457Z,74.70
2018-09-05T01:33:35.094Z,74.20
2018-09-05T01:36:13.902Z,73.00
2018-09-05T01:38:47.347Z,74.60
2018-09-05T01:41:20.810Z,75.30
2018-09-05T01:43:55.326Z,76.20
2018-09-05T01:46:28.767Z,74.90
2018-09-05T01:49:02.223Z,75.50
2018-09-05T01:51:35.662Z,75.90
2018-09-05T01:54:09.123Z,76.10
2018-09-05T01:56:42.558Z,75.60
2018-09-05T01:59:16.010Z,75.60
2018-09-05T02:01:49.898Z,75.80
2018-09-05T02:04:23.402Z,74.90
2018-09-05T02:06:56.892Z,74.70
2018-09-05T02:09:30.367Z,75.30
2018-09-05T02:12:03.934Z,74.60
2018-09-05T02:14:37.391Z,74.10
2018-09-05T02:17:10.839Z,74.20
2018-09-05T02:19:44.362Z,74.20
2018-09-05T02:22:17.790Z,74.20
2018-09-05T02:24:51.252Z,74.90
2018-09-05T02:27:24.706Z,75.20
2018-09-05T02:29:58.198Z,74.50
2018-09-05T02:32:31.647Z,74.50
2018-09-05T02:35:05.463Z,74.50
2018-09-05T02:37:40.030Z,74.90
2018-09-05T02:40:13.634Z,74.90
2018-09-05T02:42:47.048Z,74.40
2018-09-05T02:45:20.487Z,75.70
2018-09-05T02:47:53.898Z,75.90
2018-09-05T02:50:27.349Z,75.80
2018-09-05T02:53:01.807Z,75.30
2018-09-05T02:55:40.452Z,75.10
2018-09-05T02:58:13.859Z,75.30
2018-09-05T03:00:47.331Z,75.20
2018-09-05T03:03:20.762Z,75.00
2018-09-05T03:05:54.366Z,75.20
2018-09-05T03:08:27.783Z,75.20
2018-09-05T03:11:01.220Z,75.80
2018-09-05T03:13:34.686Z,76.00
2018-09-05T03:16:08.126Z,76.90
2018-09-05T03:18:41.547Z,77.90
2018-09-05T03:21:14.987Z,77.40
2018-09-05T03:23:48.395Z,76.80
2018-09-05T03:26:21.835Z,76.30
2018-09-05T03:28:55.239Z,75.60
2018-09-05T03:31:28.711Z,76.30
2018-09-05T03:34:02.263Z,76.50
2018-09-05T03:36:35.866Z,76.40
2018-09-05T03:39:10.587Z,75.90
2018-09-05T03:41:44.031Z,76.00
2018-09-05T03:44:17.635Z,76.80
2018-09-05T03:46:51.115Z,77.80
2018-09-05T03:49:24.513Z,76.40
2018-09-05T03:51:57.929Z,76.70
2018-09-05T03:54:31.324Z,76.50
2018-09-05T03:57:04.848Z,76.10
2018-09-05T03:59:38.239Z,76.10
2018-09-05T04:02:11.644Z,76.30
2018-09-05T04:04:45.043Z,76.30
2018-09-05T04:07:19.525Z,77.60
2018-09-05T04:09:52.906Z,79.40
2018-09-05T04:12:26.763Z,79.50
2018-09-05T04:15:00.146Z,79.00
2018-09-05T04:17:33.562Z,78.50
2018-09-05T04:20:07.670Z,77.90
2018-09-05T04:22:41.099Z,78.50
2018-09-05T04:25:14.546Z,76.60
2018-09-05T04:27:47.992Z,76.80
2018-09-05T04:30:21.487Z,77.80
2018-09-05T04:32:54.951Z,77.60
2018-09-05T04:35:28.415Z,77.10
2018-09-05T04:38:01.842Z,76.80
2018-09-05T04:40:35.270Z,76.80
2018-09-05T04:43:08.763Z,77.10
2018-09-05T04:45:42.178Z,77.50
2018-09-05T04:48:15.641Z,77.40
2018-09-05T04:50:49.072Z,77.00
2018-09-05T04:53:22.739Z,78.50
2018-09-05T04:55:56.164Z,77.10
2018-09-05T04:58:29.633Z,77.30
2018-09-05T05:01:04.168Z,78.10
2018-09-05T05:03:37.719Z,78.20
2018-09-05T05:06:11.161Z,78.30
2018-09-05T05:08:44.586Z,78.10
2018-09-05T05:11:18.030Z,78.20
2018-09-05T05:13:51.485Z,78.60
2018-09-05T05:16:24.942Z,78.80
2018-09-05T05:18:58.347Z,79.00
2018-09-05T05:21:31.823Z,78.80
2018-09-05T05:24:05.262Z,80.60
2018-09-05T05:26:38.705Z,81.50
2018-09-05T05:29:12.191Z,82.90
2018-09-05T05:31:45.687Z,82.70
2018-09-05T05:34:19.468Z,81.90
2018-09-05T05:36:52.931Z,81.60
2018-09-05T05:39:26.431Z,81.10
2018-09-05T05:41:59.872Z,81.00
2018-09-05T05:44:33.315Z,80.60
2018-09-05T05:47:06.771Z,80.40
2018-09-05T05:49:40.223Z,80.30
2018-09-05T05:52:13.682Z,80.80
2018-09-05T05:54:47.075Z,80.60
2018-09-05T05:57:20.503Z,81.00
2018-09-05T05:59:53.888Z,80.30
2018-09-05T06:02:27.285Z,80.20
2018-09-05T06:05:00.695Z,81.80
2018-09-05T06:07:34.110Z,81.00
2018-09-05T06:10:07.556Z,81.60
2018-09-05T06:12:40.963Z,81.40
2018-09-05T06:15:14.350Z,81.50
2018-09-05T06:17:47.785Z,82.00
2018-09-05T06:20:21.243Z,82.30
2018-09-05T06:22:54.644Z,80.70
2018-09-05T06:25:28.047Z,81.00
2018-09-05T06:28:01.460Z,80.00
2018-09-05T06:30:35.100Z,81.10
2018-09-05T06:33:08.513Z,81.80
2018-09-05T06:35:41.952Z,80.40
2018-09-05T06:38:20.278Z,81.20
2018-09-05T06:40:54.019Z,81.20
2018-09-05T06:43:27.435Z,81.20
2018-09-05T06:46:00.863Z,79.80
2018-09-05T06:48:34.303Z,79.40
2018-09-05T06:51:08.437Z,76.50
2018-09-05T06:53:41.859Z,78.00
2018-09-05T06:56:15.248Z,77.70
2018-09-05T06:58:48.673Z,80.80
2018-09-05T07:01:22.130Z,80.80
2018-09-05T07:03:55.566Z,80.50
2018-09-05T07:06:28.959Z,81.10
2018-09-05T07:09:02.392Z,78.00
2018-09-05T07:11:35.828Z,77.70
2018-09-05T07:14:09.368Z,77.90
2018-09-05T07:16:42.704Z,77.30
2018-09-05T07:19:16.141Z,78.30
2018-09-05T07:21:49.545Z,80.10
2018-09-05T07:24:22.975Z,78.30
2018-09-05T07:26:56.359Z,78.40
2018-09-05T07:29:29.767Z,78.60
2018-09-05T07:32:03.160Z,77.60
2018-09-05T07:34:36.567Z,77.10
2018-09-05T07:37:09.976Z,78.40
2018-09-05T07:39:43.408Z,78.60
2018-09-05T07:42:17.830Z,77.60
2018-09-05T07:44:51.268Z,79.00
2018-09-05T07:47:24.954Z,77.90
2018-09-05T07:49:58.377Z,79.70
2018-09-05T07:52:31.811Z,77.80
2018-09-05T07:55:05.340Z,79.00
2018-09-05T07:57:38.738Z,76.50
2018-09-05T08:00:12.239Z,76.60
2018-09-05T08:02:45.661Z,77.00
2018-09-05T08:05:19.067Z,77.70
2018-09-05T08:07:52.503Z,77.00
2018-09-05T08:10:25.908Z,75.50
2018-09-05T08:12:59.309Z,75.50
2018-09-05T08:15:32.728Z,76.30
2018-09-05T08:18:06.216Z,76.60
2018-09-05T08:20:39.610Z,75.90
2018-09-05T08:23:13.261Z,75.00
2018-09-05T08:25:46.685Z,73.90
2018-09-05T08:28:20.136Z,74.50
2018-09-05T08:30:53.552Z,74.40
2018-09-05T08:33:26.934Z,75.70
2018-09-05T08:36:00.705Z,73.70
2018-09-05T08:38:33.960Z,73.50
2018-09-05T08:41:08.739Z,73.90
2018-09-05T08:43:42.287Z,73.70
2018-09-05T08:46:15.591Z,74.70
2018-09-05T08:48:48.979Z,73.90
2018-09-05T09:15:47.271Z,74.60
2018-09-05T09:18:21.751Z,72.30
2018-09-05T09:20:55.139Z,72.30
2018-09-05T09:23:28.557Z,73.20
2018-09-05T09:26:02.006Z,71.70
2018-09-05T09:28:35.448Z,71.30
2018-09-05T09:31:08.872Z,71.20
2018-09-05T09:33:42.274Z,70.60
2018-09-05T09:36:15.690Z,70.30
2018-09-05T09:38:49.843Z,72.30
2018-09-05T09:41:23.252Z,70.80
2018-09-05T09:43:56.669Z,72.30
2018-09-05T09:46:30.061Z,70.40
2018-09-05T09:49:03.526Z,69.80
2018-09-05T09:51:36.931Z,71.60
2018-09-05T09:54:10.352Z,68.50
2018-09-05T09:56:43.771Z,69.10
2018-09-05T09:59:17.161Z,68.10
2018-09-05T10:01:55.774Z,69.80
2018-09-05T10:04:37.618Z,70.30
2018-09-05T10:07:16.276Z,67.50
2018-09-05T10:09:53.879Z,67.90
2018-09-05T10:12:32.491Z,68.10
2018-09-05T10:15:12.558Z,67.60
2018-09-05T10:17:50.212Z,67.40
2018-09-05T10:20:23.603Z,70.40
2018-09-05T10:22:57.019Z,70.30
2018-09-05T10:25:30.451Z,68.20
2018-09-05T10:28:03.879Z,67.10
2018-09-05T10:30:37.282Z,68.30
2018-09-05T10:33:10.703Z,69.00
2018-09-05T10:35:44.122Z,68.90
2018-09-05T10:38:17.532Z,67.60
2018-09-05T10:40:50.939Z,68.30
2018-09-05T10:43:24.355Z,67.80
2018-09-05T10:45:57.755Z,65.70
2018-09-05T10:48:31.204Z,65.40
2018-09-05T10:51:04.806Z,68.60
2018-09-05T10:53:38.215Z,66.70
2018-09-05T10:56:11.598Z,63.50
2018-09-05T10:58:45.155Z,64.30
2018-09-05T11:01:18.592Z,65.70
2018-09-05T11:03:53.032Z,62.60
2018-09-05T11:06:26.635Z,61.60
2018-09-05T11:09:00.128Z,62.60
2018-09-05T11:11:33.528Z,63.90
2018-09-05T11:14:07.356Z,62.20
2018-09-05T11:16:41.091Z,62.40
2018-09-05T11:19:16.612Z,62.20
2018-09-05T11:21:50.012Z,60.60
2018-09-05T11:24:23.442Z,60.00
2018-09-05T11:26:56.827Z,60.60
2018-09-05T11:29:31.746Z,59.80
2018-09-05T11:32:05.139Z,60.50
2018-09-05T11:34:40.255Z,60.30
2018-09-05T11:37:13.659Z,59.50
2018-09-05T11:39:48.838Z,59.50
2018-09-05T11:42:22.227Z,60.40
2018-09-05T11:44:56.414Z,61.30
2018-09-05T11:47:29.868Z,64.60
2018-09-05T11:50:03.440Z,64.70
2018-09-05T11:52:37.938Z,64.60
2018-09-05T11:55:11.359Z,62.70
2018-09-05T11:57:44.791Z,61.80
2018-09-05T12:00:18.222Z,61.30
2018-09-05T12:02:51.604Z,60.20
2018-09-05T12:05:25.011Z,61.80
2018-09-05T12:07:59.513Z,60.40
2018-09-05T12:10:32.930Z,60.20
2018-09-05T12:13:06.319Z,60.60
2018-09-05T12:15:39.731Z,60.10
2018-09-05T12:18:13.122Z,59.10
2018-09-05T12:20:47.639Z,57.60
2018-09-05T12:23:21.034Z,56.90
2018-09-05T12:25:54.482Z,58.30
2018-09-05T12:28:28.983Z,57.90
2018-09-05T12:31:02.403Z,57.90
2018-09-05T12:33:35.802Z,58.40
2018-09-05T12:36:09.330Z,56.50
2018-09-05T12:38:42.718Z,57.50
2018-09-05T12:41:17.164Z,58.90
2018-09-05T12:43:50.571Z,58.10
2018-09-05T12:46:23.991Z,57.20
2018-09-05T12:48:57.386Z,56.50
2018-09-05T12:51:31.008Z,55.50
2018-09-05T12:54:04.831Z,56.60
2018-09-05T12:56:38.259Z,56.30
2018-09-05T12:59:11.745Z,56.30
2018-09-05T13:01:45.153Z,57.30
2018-09-05T13:04:18.588Z,57.00
2018-09-05T13:06:52.026Z,57.10
2018-09-05T13:09:25.443Z,57.00
2018-09-05T13:11:58.880Z,56.80
2018-09-05T13:14:32.275Z,56.80
2018-09-05T13:17:05.703Z,56.30
2018-09-05T13:19:41.159Z,54.50
2018-09-05T13:22:14.582Z,55.80
2018-09-05T13:24:47.974Z,55.40
2018-09-05T13:27:21.413Z,56.80
2018-09-05T13:29:54.834Z,55.90
2018-09-05T13:32:28.287Z,55.40
2018-09-05T13:35:05.231Z,55.60
2018-09-05T13:37:38.743Z,53.70
2018-09-05T13:40:13.175Z,54.00
2018-09-05T13:42:46.575Z,54.70
2018-09-05T13:45:19.966Z,53.70
2018-09-05T13:47:53.391Z,54.10
2018-09-05T13:50:27.234Z,52.60
2018-09-05T13:53:01.685Z,52.90
2018-09-05T13:55:35.091Z,53.60
2018-09-05T13:58:08.508Z,53.00
2018-09-05T14:00:42.045Z,53.10
2018-09-05T14:03:15.534Z,53.50
2018-09-05T14:05:50.996Z,52.50
2018-09-05T14:08:25.043Z,52.20
2018-09-05T14:10:59.605Z,52.70
2018-09-05T14:13:33.059Z,51.60
2018-09-05T14:16:06.650Z,52.90
2018-09-05T14:18:40.051Z,52.20
2018-09-05T14:21:13.483Z,51.90
2018-09-05T14:23:46.955Z,52.60
2018-09-05T14:26:20.349Z,52.40
2018-09-05T14:28:53.791Z,50.40
2018-09-05T14:31:27.215Z,50.40
2018-09-05T14:34:00.675Z,51.40
2018-09-05T14:36:36.228Z,49.50
2018-09-05T14:39:13.607Z,51.10
2018-09-05T14:41:47.036Z,49.50
2018-09-05T14:44:20.443Z,49.10
2018-09-05T14:46:53.847Z,51.90
2018-09-05T14:49:27.255Z,48.30
2018-09-05T14:52:00.663Z,51.40
2018-09-05T14:54:34.075Z,49.40
2018-09-05T14:57:07.519Z,49.60
2018-09-05T14:59:40.959Z,47.70
2018-09-05T15:02:14.347Z,50.90
2018-09-05T15:04:47.770Z,47.20
2018-09-05T15:07:21.216Z,48.70
2018-09-05T15:09:56.716Z,48.90
2018-09-05T15:12:30.115Z,49.90
2018-09-05T15:15:03.612Z,48.50
2018-09-05T15:17:37.008Z,48.30
2018-09-05T15:20:18.158Z,48.60
2018-09-05T15:22:51.556Z,47.20
2018-09-05T15:25:24.991Z,48.70
2018-09-05T15:27:58.389Z,47.10
2018-09-05T15:30:34.937Z,48.70
2018-09-05T15:33:08.971Z,49.40
2018-09-05T15:35:42.395Z,50.40
2018-09-05T15:38:15.843Z,50.90
2018-09-05T15:40:49.308Z,50.90
2018-09-05T15:43:23.271Z,50.20
2018-09-05T15:45:56.756Z,49.50
2018-09-05T15:48:30.220Z,49.80
2018-09-05T15:51:03.669Z,51.20
2018-09-05T15:53:37.072Z,50.40
2018-09-05T15:56:10.531Z,51.10
2018-09-05T15:58:47.334Z,50.70
2018-09-05T16:01:20.761Z,50.50
2018-09-05T16:03:54.198Z,51.50
2018-09-05T16:06:27.610Z,50.40
2018-09-05T16:09:01.204Z,50.00
2018-09-05T16:11:34.616Z,49.40
2018-09-05T16:14:12.488Z,47.30
2018-09-05T16:16:45.897Z,49.60
2018-09-05T16:19:19.305Z,50.00
2018-09-05T16:21:52.746Z,45.90
2018-09-05T16:24:26.149Z,48.00
2018-09-05T16:26:59.572Z,47.10
2018-09-05T16:29:32.985Z,47.90
2018-09-05T16:32:06.494Z,46.90
2018-09-05T16:34:39.929Z,48.00
2018-09-05T16:40:26.138Z,48.40
2018-09-05T16:43:33.514Z,47.10
2018-09-05T16:46:07.629Z,48.50
2018-09-05T16:48:41.068Z,48.60
2018-09-05T16:51:17.263Z,48.10
2018-09-05T16:54:02.119Z,47.10
2018-09-05T16:56:41.923Z,45.50
2018-09-05T16:59:15.339Z,47.30
2018-09-05T17:01:49.815Z,49.40
2018-09-05T17:04:24.319Z,49.80
2018-09-05T17:06:57.763Z,50.70
2018-09-05T17:09:31.166Z,50.60
2018-09-05T17:12:05.665Z,49.80
2018-09-05T17:14:39.096Z,49.50
2018-09-05T17:17:12.549Z,49.60
2018-09-05T17:19:45.942Z,50.00
2018-09-05T17:22:19.357Z,50.50
2018-09-05T17:24:52.802Z,53.50
2018-09-05T17:27:26.350Z,53.70
2018-09-05T17:29:59.764Z,53.70
2018-09-05T17:32:38.970Z,53.10
2018-09-05T17:35:12.417Z,53.50
2018-09-05T17:37:45.847Z,54.60
2018-09-05T17:40:19.328Z,54.40
2018-09-05T17:42:53.066Z,55.00
2018-09-05T17:45:26.487Z,56.00
2018-09-05T17:47:59.967Z,55.90
2018-09-05T17:50:33.360Z,55.50
2018-09-05T17:53:06.808Z,54.80
2018-09-05T17:55:40.213Z,54.60
2018-09-05T17:58:13.695Z,54.30
2018-09-05T18:00:47.128Z,54.30
2018-09-05T18:03:20.543Z,55.00
2018-09-05T18:05:53.939Z,55.50
2018-09-05T18:08:27.507Z,55.60
2018-09-05T18:11:00.896Z,55.50
2018-09-05T18:13:35.351Z,55.60
2018-09-05T18:16:08.785Z,55.70
2018-09-05T18:18:43.492Z,55.70
2018-09-05T18:21:16.886Z,56.20
2018-09-05T18:23:50.305Z,55.70
2018-09-05T18:26:23.772Z,55.80
2018-09-05T18:28:57.172Z,55.10
2018-09-05T18:31:31.666Z,55.50
2018-09-05T18:34:05.084Z,55.30
2018-09-05T18:36:38.497Z,55.20
2018-09-05T18:39:11.900Z,54.50
2018-09-05T18:41:45.368Z,54.90
2018-09-05T18:44:18.775Z,55.70
2018-09-05T18:46:52.254Z,55.40
2018-09-05T18:49:25.683Z,55.60
2018-09-05T18:51:59.283Z,55.70
2018-09-05T18:54:32.692Z,55.80
2018-09-05T18:57:06.100Z,55.50
2018-09-05T18:59:41.630Z,55.70
2018-09-05T19:02:15.114Z,55.90
2018-09-05T19:04:48.626Z,56.10
2018-09-05T19:07:22.082Z,56.20
2018-09-05T19:09:55.650Z,56.10
2018-09-05T19:12:29.038Z,55.70
2018-09-05T19:15:02.442Z,55.60
2018-09-05T19:17:35.842Z,55.20
2018-09-05T19:20:09.322Z,55.50
2018-09-05T19:22:42.716Z,55.20
2018-09-05T19:25:16.140Z,55.50
2018-09-05T19:27:49.735Z,55.70
2018-09-05T19:30:23.222Z,55.30
2018-09-05T19:32:56.614Z,56.00
2018-09-05T19:35:30.090Z,55.50
2018-09-05T19:38:03.510Z,55.50
2018-09-05T19:40:39.033Z,56.30
2018-09-05T19:43:12.434Z,56.20
2018-09-05T19:45:45.945Z,56.80
2018-09-05T19:48:19.415Z,57.00
2018-09-05T19:50:52.824Z,57.30
2018-09-05T19:53:26.349Z,58.30
2018-09-05T19:55:59.826Z,58.90
2018-09-05T19:58:33.303Z,58.60
2018-09-05T20:01:06.830Z,58.10
2018-09-05T20:03:40.479Z,58.10
2018-09-05T20:06:14.974Z,58.50
2018-09-05T20:08:48.435Z,58.60
2018-09-05T20:11:23.767Z,58.40
2018-09-05T20:13:57.243Z,59.40
2018-09-05T20:16:30.696Z,58.50
2018-09-05T20:19:04.154Z,58.30
2018-09-05T20:21:37.552Z,58.70
2018-09-05T20:24:10.960Z,58.90
2018-09-05T20:26:46.403Z,59.00
2018-09-05T20:29:19.798Z,59.70
2018-09-05T20:31:53.243Z,59.60
2018-09-05T20:34:27.718Z,60.40
2018-09-05T20:37:01.151Z,60.50
2018-09-05T20:39:34.653Z,60.50
2018-09-05T20:42:08.043Z,60.00
2018-09-05T20:44:41.447Z,60.20
2018-09-05T20:47:14.900Z,60.10
2018-09-05T20:49:48.372Z,59.90
2018-09-05T20:52:21.767Z,60.00
2018-09-05T20:54:55.211Z,60.10
2018-09-05T20:57:28.595Z,60.50
2018-09-05T21:00:02.080Z,60.20
2018-09-05T21:02:35.475Z,60.20
2018-09-05T21:05:08.923Z,60.10
2018-09-05T21:07:42.312Z,60.00
2018-09-05T21:10:15.723Z,59.80
2018-09-05T21:12:49.107Z,59.50
2018-09-05T21:15:22.510Z,59.90
2018-09-05T21:17:55.906Z,60.00
2018-09-05T21:20:29.314Z,60.00
2018-09-05T21:23:02.758Z,60.00
2018-09-05T21:25:36.167Z,60.10
2018-09-05T21:28:11.620Z,60.00
2018-09-05T21:30:45.026Z,60.00
2018-09-05T21:33:18.418Z,60.00
2018-09-05T21:35:51.855Z,60.10
2018-09-05T21:38:25.251Z,60.40
2018-09-05T21:40:58.664Z,60.60
2018-09-05T21:43:32.086Z,60.70
2018-09-05T21:46:05.708Z,60.70
2018-09-05T21:48:39.102Z,60.90
2018-09-05T21:51:12.542Z,60.60
2018-09-05T21:53:45.922Z,60.90
2018-09-05T21:56:19.326Z,61.00
2018-09-05T21:58:52.731Z,61.00
2018-09-05T22:01:26.143Z,60.90
2018-09-05T22:03:59.534Z,61.70
2018-09-05T22:06:32.930Z,61.10
2018-09-05T22:09:08.547Z,61.10
2018-09-05T22:11:42.062Z,61.40
2018-09-05T22:14:15.406Z,61.60
2018-09-05T22:16:48.810Z,61.80
2018-09-05T22:19:22.208Z,61.50
2018-09-05T22:21:55.610Z,61.60
2018-09-05T22:24:29.063Z,61.40
2018-09-05T22:27:02.471Z,61.90
2018-09-05T22:29:36.901Z,62.00
2018-09-05T22:32:10.302Z,62.00
2018-09-05T22:34:43.682Z,62.20
2018-09-05T22:37:17.123Z,62.30
2018-09-05T22:39:50.655Z,62.80
2018-09-05T22:42:24.058Z,62.70
2018-09-05T22:45:08.721Z,63.50
2018-09-05T22:47:57.472Z,63.30
2018-09-05T22:51:04.687Z,62.80
2018-09-05T22:56:32.189Z,62.90
2018-09-05T22:59:24.576Z,62.60
2018-09-05T23:02:13.683Z,63.40
2018-09-05T23:05:09.125Z,63.40
2018-09-05T23:08:47.336Z,63.30
2018-09-05T23:11:58.800Z,63.10
2018-09-05T23:14:43.315Z,63.20
2018-09-05T23:17:27.830Z,63.20
2018-09-05T23:22:11.869Z,63.20
2018-09-05T23:24:45.303Z,63.20
2018-09-05T23:27:19.839Z,63.50
2018-09-05T23:29:53.267Z,63.90
2018-09-05T23:32:26.667Z,64.10
2018-09-05T23:35:00.108Z,64.00
2018-09-05T23:37:33.528Z,64.90
2018-09-05T23:40:06.964Z,66.10
2018-09-05T23:42:40.379Z,66.50
2018-09-05T23:45:13.804Z,66.40
2018-09-05T23:47:47.192Z,66.20
2018-09-05T23:50:20.599Z,66.40
2018-09-05T23:52:54.005Z,66.00
2018-09-05T23:55:27.432Z,67.00
2018-09-05T23:58:00.828Z,66.70
